Vancouver Sea Island Ccg, British Columbia

1:53 AM PDT on October 02, 2014 (GMT -0700)
Vancouver | Change Station
CLOSE
Current Station
Airport
Location: Vancouver,
Elevation: 13 ft
Nearby Weather Stations

Elev 13 ft 49.18 °N, 123.17 °W | Updated 53 minutes ago

Mostly Cloudy
Mostly Cloudy
52 °F
Feels Like 52 °F
N
4
Wind Variable Wind from East

Today
High -- | Low -- °F
--% Chance of Precip.
Yesterday
High -- | Low -- °F
Precip. -- in
7:14 AM 6:49 PM
First Quarter, 56% visible
Pressure 30.20 in
Visibility 20.0 miles
Clouds Few 7700 ft
Mostly Cloudy 21000 ft
Dew Point 45 °F
Humidity 76%
Rainfall 0.00 in
Snow Depth Not available.
UV 0 out of 12
Pollen Not available.
Air Quality Not available.
Flu Activity Not available.
METAR CYVR 020800Z 08003KT 030V090 20SM FEW077 BKN210 11/07 A3020 RMK AC1CC6 SLP226

More Conditions Fewer Conditions

Pressure 30.20 in
Visibility 20.0 miles
Clouds Few 7700 ft
Mostly Cloudy 21000 ft
Dew Point 45 °F
Humidity 76%
Rainfall 0.00 in
Snow Depth Not available.
UV 0 out of 12
Pollen Not available.
Air Quality Not available.
Flu Activity Not available.
METAR CYVR 020800Z 08003KT 030V090 20SM FEW077 BKN210 11/07 A3020 RMK AC1CC6 SLP226

More Conditions Fewer Conditions

10-Day Weather Forecast

Almanac

Astronomy

Oct. 02, 2014 Rise Set
Actual Time 7:14 AM PDT 6:49 PM PDT
Civil Twilight 6:42 AM PDT 7:20 PM PDT
Nautical Twilight 6:05 AM PDT 7:57 PM PDT
Astronomical Twilight 5:27 AM PDT 8:34 PM PDT
Moon 3:26 PM PDT 12:07 AM PDT
Length of Visible Light 12h 38m
Length of Day
11h 34m
Tomorrow will be 3m 36s shorter.
First Quarter, 56% of the Moon is Illuminated
Today
First Quarter
Oct 8
Full
Oct 15
Last Quarter
Oct 23
New
Oct 30
First Quarter

Yesterday's Extremes

Country Highs Country Lows

Community

WunderPhotos

Upload Photos

1,758,196 photos uploaded!

WunderBlogs® & News

By Dr. Jeff Masters
Director of Meteorology, Weather Underground
By Kari Strenfel
Meteorologist, Weather Underground
By Christopher C. Burt
Weather Historian, Weather Underground
October 2, 2014
October 2, 2014
October 2, 2014

Nearby

Snow Depth

Not available.

Earthquake Activity

City Distance Mag. Time & Date
No recent earthquake activity has been reported nearby.
Minimum magnitude displayed is 2.5.

Coastal Water Temperatures

Place Temperature
No Stations Reporting

Nearby Weather Stations